createdAt,value
2018-05-08T00:01:18.594Z,5.23
2018-05-08T00:03:46.093Z,5.50
2018-05-08T00:06:13.602Z,5.83
2018-05-08T00:08:41.117Z,5.90
2018-05-08T00:11:08.637Z,5.70
2018-05-08T00:13:36.153Z,5.57
2018-05-08T00:16:03.677Z,6.00
2018-05-08T00:18:31.250Z,6.50
2018-05-08T00:20:58.776Z,6.27
2018-05-08T00:23:26.333Z,6.20
2018-05-08T00:25:53.834Z,6.73
2018-05-08T00:28:21.343Z,6.13
2018-05-08T00:30:48.977Z,6.57
2018-05-08T00:33:17.262Z,6.63
2018-05-08T00:35:44.770Z,6.37
2018-05-08T00:38:12.334Z,6.50
2018-05-08T00:40:39.898Z,6.60
2018-05-08T00:43:07.414Z,6.87
2018-05-08T00:45:34.940Z,6.57
2018-05-08T00:48:03.250Z,6.40
2018-05-08T00:50:30.793Z,7.03
2018-05-08T00:52:58.320Z,6.73
2018-05-08T00:55:26.622Z,6.50
2018-05-08T00:57:54.127Z,6.47
2018-05-08T01:00:21.659Z,6.53
2018-05-08T01:02:49.203Z,6.60
2018-05-08T01:05:16.722Z,6.67
2018-05-08T01:07:44.222Z,6.30
2018-05-08T01:10:11.757Z,6.70
2018-05-08T01:12:40.089Z,6.60
2018-05-08T01:15:07.616Z,7.07
2018-05-08T01:17:35.112Z,7.00
2018-05-08T01:20:02.620Z,7.03
2018-05-08T01:22:30.921Z,6.87
2018-05-08T01:24:58.466Z,7.33
2018-05-08T01:27:25.971Z,7.27
2018-05-08T01:29:53.486Z,7.03
2018-05-08T01:32:21.762Z,7.23
2018-05-08T01:34:49.276Z,7.00
2018-05-08T01:37:16.804Z,7.03
2018-05-08T01:39:44.310Z,6.90
2018-05-08T01:42:11.814Z,7.33
2018-05-08T01:44:39.355Z,6.77
2018-05-08T01:47:07.268Z,6.83
2018-05-08T01:49:34.770Z,7.17
2018-05-08T01:52:02.319Z,7.13
2018-05-08T01:54:29.898Z,7.53
2018-05-08T01:56:57.441Z,7.60
2018-05-08T01:59:25.053Z,7.73
2018-05-08T02:01:53.372Z,7.17
2018-05-08T02:04:20.911Z,7.80
2018-05-08T02:06:48.434Z,7.40
2018-05-08T02:09:16.712Z,7.10
2018-05-08T02:11:44.228Z,7.23
2018-05-08T02:14:11.806Z,7.50
2018-05-08T02:16:39.338Z,7.40
2018-05-08T02:19:06.874Z,7.30
2018-05-08T02:21:34.420Z,7.30
2018-05-08T02:24:02.695Z,7.30
2018-05-08T02:26:30.230Z,7.47
2018-05-08T02:28:58.543Z,7.23
2018-05-08T02:31:26.043Z,7.17
2018-05-08T02:33:53.575Z,6.50
2018-05-08T02:36:21.103Z,6.80
2018-05-08T02:38:48.633Z,8.03
2018-05-08T02:41:16.190Z,6.77
2018-05-08T02:43:43.701Z,6.90
2018-05-08T02:46:11.971Z,7.13
2018-05-08T02:48:39.515Z,7.50
2018-05-08T02:51:07.027Z,6.77
2018-05-08T02:53:35.319Z,7.40
2018-05-08T02:56:02.840Z,7.20
2018-05-08T02:58:30.375Z,7.33
2018-05-08T03:00:57.918Z,7.17
2018-05-08T03:03:25.452Z,6.93
2018-05-08T03:05:52.956Z,6.93
2018-05-08T03:08:20.453Z,7.23
2018-05-08T03:10:47.994Z,6.97
2018-05-08T03:13:15.508Z,6.90
2018-05-08T03:15:43.013Z,7.10
2018-05-08T03:18:10.552Z,7.17
2018-05-08T03:20:38.068Z,7.00
2018-05-08T03:23:05.567Z,7.40
2018-05-08T03:25:33.089Z,7.20
2018-05-08T03:28:00.587Z,6.63
2018-05-08T03:30:28.111Z,7.60
2018-05-08T03:32:55.626Z,6.77
2018-05-08T03:35:23.913Z,7.10
2018-05-08T03:37:51.437Z,6.73
2018-05-08T03:40:19.993Z,6.83
2018-05-08T03:42:47.498Z,6.83
2018-05-08T03:45:15.030Z,7.10
2018-05-08T03:47:42.568Z,7.00
2018-05-08T03:50:10.846Z,7.20
2018-05-08T03:52:38.474Z,7.30
2018-05-08T03:55:07.707Z,7.07
2018-05-08T03:57:35.227Z,6.90
2018-05-08T04:00:03.530Z,7.10
2018-05-08T04:02:43.268Z,6.97
2018-05-08T04:05:23.283Z,7.57
2018-05-08T04:08:02.695Z,7.33
2018-05-08T04:10:30.221Z,7.40
2018-05-08T04:12:58.572Z,6.93
2018-05-08T04:15:26.179Z,7.33
2018-05-08T04:17:53.666Z,6.63
2018-05-08T04:20:21.190Z,7.07
2018-05-08T04:22:49.454Z,7.60
2018-05-08T04:25:17.474Z,6.90
2018-05-08T04:27:45.083Z,7.10
2018-05-08T04:30:12.585Z,7.43
2018-05-08T04:32:40.115Z,7.03
2018-05-08T04:35:08.390Z,7.27
2018-05-08T04:37:36.657Z,6.83
2018-05-08T04:40:04.952Z,7.10
2018-05-08T04:42:33.258Z,7.20
2018-05-08T04:45:00.767Z,6.63
2018-05-08T04:47:28.322Z,7.57
2018-05-08T04:49:55.895Z,7.60
2018-05-08T04:52:23.455Z,7.23
2018-05-08T04:54:51.758Z,7.83
2018-05-08T04:57:19.277Z,7.33
2018-05-08T04:59:46.773Z,7.47
2018-05-08T05:02:15.085Z,7.03
2018-05-08T05:04:42.594Z,7.77
2018-05-08T05:07:10.912Z,7.07
2018-05-08T05:09:38.455Z,6.57
2018-05-08T05:12:05.961Z,7.60
2018-05-08T05:14:33.463Z,7.40
2018-05-08T05:17:01.001Z,8.07
2018-05-08T05:19:28.519Z,7.40
2018-05-08T05:21:56.030Z,6.20
2018-05-08T05:24:24.429Z,6.97
2018-05-08T05:26:51.957Z,7.20
2018-05-08T05:29:19.474Z,6.67
2018-05-08T05:31:47.007Z,7.13
2018-05-08T05:34:14.727Z,6.43
2018-05-08T05:36:42.237Z,7.23
2018-05-08T05:39:09.749Z,7.30
2018-05-08T05:41:37.327Z,7.07
2018-05-08T05:44:04.904Z,6.93
2018-05-08T05:46:32.413Z,7.67
2018-05-08T05:48:59.938Z,7.00
2018-05-08T05:51:28.220Z,6.60
2018-05-08T05:53:55.748Z,6.93
2018-05-08T05:56:26.380Z,6.70
2018-05-08T05:58:53.909Z,7.40
2018-05-08T06:01:21.414Z,6.90
2018-05-08T06:03:48.957Z,6.67
2018-05-08T06:06:16.531Z,7.40
2018-05-08T06:08:44.055Z,7.70
2018-05-08T06:11:11.592Z,7.03
2018-05-08T06:13:39.101Z,7.63
2018-05-08T06:16:07.161Z,7.32
2018-05-08T06:18:34.863Z,7.67
2018-05-08T06:21:02.386Z,6.90
2018-05-08T06:23:29.900Z,7.00
2018-05-08T06:25:57.435Z,7.37
2018-05-08T06:28:25.006Z,7.90
2018-05-08T06:30:53.240Z,8.17
2018-05-08T06:33:20.773Z,7.90
2018-05-08T06:35:48.279Z,7.03
2018-05-08T06:38:15.798Z,6.20
2018-05-08T06:40:43.330Z,7.47
2018-05-08T06:43:11.601Z,8.00
2018-05-08T06:45:39.102Z,7.70
2018-05-08T06:48:06.653Z,7.90
2018-05-08T06:50:34.188Z,7.90
2018-05-08T06:53:02.472Z,7.90
2018-05-08T06:55:30.012Z,8.17
2018-05-08T06:57:57.522Z,7.60
2018-05-08T07:00:25.045Z,8.03
2018-05-08T07:02:52.679Z,8.00
2018-05-08T07:05:20.190Z,8.47
2018-05-08T07:07:47.734Z,8.50
2018-05-08T07:10:15.313Z,8.30
2018-05-08T07:12:42.818Z,8.47
2018-05-08T07:15:10.326Z,8.23
2018-05-08T07:17:37.858Z,7.50
2018-05-08T07:20:05.373Z,7.93
2018-05-08T07:22:32.902Z,8.70
2018-05-08T07:25:00.440Z,7.40
2018-05-08T07:27:27.947Z,7.93
2018-05-08T07:29:55.547Z,6.90
2018-05-08T07:32:23.025Z,7.43
2018-05-08T07:34:51.315Z,7.37
2018-05-08T07:37:18.852Z,6.90
2018-05-08T07:39:48.017Z,7.00
2018-05-08T07:42:15.520Z,6.10
2018-05-08T07:44:43.910Z,6.60
2018-05-08T07:47:11.457Z,6.50
2018-05-08T07:49:38.974Z,6.60
2018-05-08T07:52:07.429Z,5.90
2018-05-08T07:54:35.047Z,6.10
2018-05-08T07:57:03.322Z,5.70
2018-05-08T07:59:30.834Z,6.93
2018-05-08T08:01:58.959Z,5.70
2018-05-08T08:04:26.484Z,6.13
2018-05-08T08:06:54.007Z,6.20
2018-05-08T08:09:22.305Z,5.77
2018-05-08T08:11:50.593Z,5.77
2018-05-08T08:14:18.105Z,5.80
2018-05-08T08:16:45.683Z,5.10
2018-05-08T08:19:13.269Z,5.37
2018-05-08T08:21:40.797Z,6.10
2018-05-08T08:24:10.081Z,5.63
2018-05-08T08:26:37.600Z,5.73
2018-05-08T08:29:05.111Z,5.40
2018-05-08T08:31:32.640Z,6.33
2018-05-08T08:34:00.226Z,5.77
2018-05-08T08:36:27.686Z,5.13
2018-05-08T08:38:55.234Z,5.87
2018-05-08T08:41:22.786Z,5.60
2018-05-08T08:43:50.329Z,6.40
2018-05-08T08:46:17.856Z,5.90
2018-05-08T08:48:45.365Z,5.57
2018-05-08T08:51:13.040Z,5.90
2018-05-08T08:53:40.563Z,5.40
2018-05-08T08:56:08.117Z,5.40
2018-05-08T08:58:35.660Z,6.30
2018-05-08T09:01:03.180Z,5.27
2018-05-08T09:03:30.700Z,5.27
2018-05-08T09:05:58.992Z,4.90
2018-05-08T09:08:26.501Z,4.87
2018-05-08T09:10:54.078Z,5.03
2018-05-08T09:13:22.362Z,5.13
2018-05-08T09:15:49.867Z,4.27
2018-05-08T09:18:17.377Z,4.07
2018-05-08T09:20:44.911Z,4.87
2018-05-08T09:23:12.423Z,4.37
2018-05-08T09:25:39.946Z,4.23
2018-05-08T09:28:07.807Z,4.32
2018-05-08T09:30:35.350Z,4.50
2018-05-08T09:33:02.867Z,4.07
2018-05-08T09:35:30.450Z,4.00
2018-05-08T09:37:57.982Z,3.70
2018-05-08T09:40:25.515Z,4.40
2018-05-08T09:42:53.786Z,3.73
2018-05-08T09:45:21.295Z,4.07
2018-05-08T09:47:48.795Z,3.30
2018-05-08T09:50:16.330Z,4.40
2018-05-08T09:52:43.830Z,3.90
2018-05-08T09:55:12.105Z,4.00
2018-05-08T09:57:39.630Z,4.80
2018-05-08T10:00:07.205Z,4.67
2018-05-08T10:02:34.756Z,3.80
2018-05-08T10:05:02.268Z,4.10
2018-05-08T10:07:29.797Z,3.57
2018-05-08T10:09:57.308Z,3.70
2018-05-08T10:12:24.811Z,4.10
2018-05-08T10:14:52.334Z,3.67
2018-05-08T10:17:19.845Z,3.80
2018-05-08T10:19:47.366Z,3.70
2018-05-08T10:22:14.906Z,4.10
2018-05-08T10:24:42.416Z,4.20
2018-05-08T10:27:10.665Z,4.80
2018-05-08T10:29:38.189Z,4.93
2018-05-08T10:32:05.703Z,4.50
2018-05-08T10:34:33.203Z,3.13
2018-05-08T10:37:00.722Z,3.57
2018-05-08T10:39:28.255Z,3.30
2018-05-08T10:41:55.769Z,2.83
2018-05-08T10:44:24.055Z,2.57
2018-05-08T10:46:51.624Z,2.30
2018-05-08T10:49:19.139Z,2.30
2018-05-08T10:51:46.643Z,2.00
2018-05-08T10:54:14.940Z,2.17
2018-05-08T10:56:42.451Z,1.97
2018-05-08T10:59:09.959Z,1.87
2018-05-08T11:01:38.035Z,1.73
2018-05-08T11:04:05.586Z,2.10
2018-05-08T11:06:33.095Z,2.33
2018-05-08T11:09:00.728Z,2.20
2018-05-08T11:11:28.240Z,2.00
2018-05-08T11:13:55.757Z,2.10
2018-05-08T11:16:23.293Z,2.40
2018-05-08T11:18:50.794Z,2.20
2018-05-08T11:21:18.293Z,2.03
2018-05-08T11:23:46.581Z,2.00
2018-05-08T11:26:14.717Z,2.10
2018-05-08T11:28:42.249Z,2.00
2018-05-08T11:31:10.571Z,1.90
2018-05-08T11:33:38.085Z,2.30
2018-05-08T11:36:06.342Z,2.03
2018-05-08T11:38:33.867Z,2.40
2018-05-08T11:41:01.406Z,2.50
2018-05-08T11:43:28.910Z,2.20
2018-05-08T11:45:56.465Z,2.10
2018-05-08T11:48:24.748Z,2.03
2018-05-08T11:50:52.255Z,2.10
2018-05-08T11:53:19.785Z,1.90
2018-05-08T11:55:47.286Z,2.17
2018-05-08T11:58:14.802Z,2.20
2018-05-08T12:00:42.326Z,2.87
2018-05-08T12:03:10.591Z,1.90
2018-05-08T12:05:38.114Z,2.17
2018-05-08T12:08:05.648Z,3.07
2018-05-08T12:10:33.170Z,2.53
2018-05-08T12:13:00.712Z,1.93
2018-05-08T12:15:28.249Z,2.20
2018-05-08T12:17:55.745Z,2.17
2018-05-08T12:20:23.280Z,2.30
2018-05-08T12:22:50.821Z,2.00
2018-05-08T12:25:18.329Z,2.30
2018-05-08T12:27:45.869Z,1.90
2018-05-08T12:30:13.412Z,2.27
2018-05-08T12:32:40.931Z,2.20
2018-05-08T12:35:09.198Z,2.03
2018-05-08T12:37:37.205Z,2.07
2018-05-08T12:40:04.722Z,2.20
2018-05-08T12:42:32.259Z,1.97
2018-05-08T12:44:59.829Z,2.33
2018-05-08T12:47:27.341Z,1.90
2018-05-08T12:49:54.901Z,1.93
2018-05-08T12:52:22.445Z,2.10
2018-05-08T12:54:50.729Z,2.10
2018-05-08T12:57:18.253Z,2.17
2018-05-08T12:59:45.761Z,2.30
2018-05-08T13:02:14.025Z,2.30
2018-05-08T13:04:41.565Z,2.00
2018-05-08T13:07:09.117Z,2.30
2018-05-08T13:09:36.629Z,2.50
2018-05-08T13:12:04.194Z,2.30
2018-05-08T13:14:31.693Z,2.10
2018-05-08T13:16:59.225Z,2.60
2018-05-08T13:19:26.751Z,2.33
2018-05-08T13:21:54.267Z,2.77
2018-05-08T13:24:22.254Z,2.40
2018-05-08T13:26:49.751Z,2.73
2018-05-08T13:29:17.295Z,2.60
2018-05-08T13:31:45.587Z,3.17
2018-05-08T13:34:13.105Z,2.80
2018-05-08T13:36:40.682Z,3.20
2018-05-08T13:39:08.164Z,3.20
2018-05-08T13:41:35.714Z,3.03
2018-05-08T13:44:03.320Z,3.53
2018-05-08T13:46:30.819Z,2.80
2018-05-08T13:48:58.313Z,2.97
2018-05-08T13:51:25.832Z,3.13
2018-05-08T13:53:53.402Z,3.13
2018-05-08T13:56:21.611Z,2.43
2018-05-08T13:58:49.136Z,2.50
2018-05-08T14:01:16.642Z,2.47
2018-05-08T14:03:44.205Z,3.13
2018-05-08T14:06:11.748Z,2.57
2018-05-08T14:08:39.263Z,2.87
2018-05-08T14:11:06.781Z,2.87
2018-05-08T14:13:34.363Z,2.90
2018-05-08T14:16:01.871Z,2.87
2018-05-08T14:18:29.441Z,2.80
2018-05-08T14:20:56.962Z,2.43
2018-05-08T14:23:24.454Z,2.60
2018-05-08T14:25:51.962Z,2.03
2018-05-08T14:28:19.484Z,2.70
2018-05-08T14:30:47.760Z,2.90
2018-05-08T14:33:16.036Z,2.50
2018-05-08T14:35:43.576Z,2.20
2018-05-08T14:38:11.116Z,2.07
2018-05-08T14:40:38.663Z,2.43
2018-05-08T14:43:06.195Z,2.40
2018-05-08T14:45:33.746Z,2.30
2018-05-08T14:48:02.047Z,1.97
2018-05-08T14:50:29.579Z,2.00
2018-05-08T14:52:57.108Z,2.03
2018-05-08T14:55:24.607Z,2.10
2018-05-08T14:57:52.126Z,2.33
2018-05-08T15:00:19.645Z,2.40
2018-05-08T15:02:47.187Z,2.20
2018-05-08T15:05:14.683Z,2.70
2018-05-08T15:07:42.215Z,2.50
2018-05-08T15:10:09.749Z,2.57
2018-05-08T15:12:38.050Z,2.70
2018-05-08T15:15:05.589Z,2.27
2018-05-08T15:17:33.106Z,2.50
2018-05-08T15:20:00.623Z,2.60
2018-05-08T15:25:02.082Z,2.53
2018-05-08T15:27:30.410Z,2.33
2018-05-08T15:29:57.923Z,2.90
2018-05-08T15:32:26.863Z,2.47
2018-05-08T15:34:55.092Z,2.50
2018-05-08T15:37:23.371Z,2.70
2018-05-08T15:39:51.658Z,2.40
2018-05-08T15:42:19.201Z,2.60
2018-05-08T15:44:47.933Z,2.77
2018-05-08T15:47:15.476Z,2.80
2018-05-08T15:49:43.048Z,2.73
2018-05-08T15:52:10.654Z,2.90
2018-05-08T15:54:38.182Z,2.60
2018-05-08T15:57:05.706Z,2.60
2018-05-08T15:59:33.215Z,2.47
2018-05-08T16:02:00.797Z,2.70
2018-05-08T16:04:28.332Z,2.67
2018-05-08T16:06:57.488Z,3.07
2018-05-08T16:09:25.774Z,2.60
2018-05-08T16:11:53.366Z,2.77
2018-05-08T16:14:21.039Z,2.60
2018-05-08T16:16:48.575Z,4.30
2018-05-08T16:19:16.106Z,6.50
2018-05-08T16:21:43.630Z,6.90
2018-05-08T16:24:11.203Z,5.63
2018-05-08T16:26:38.706Z,3.00
2018-05-08T16:29:06.227Z,3.60
2018-05-08T16:31:33.786Z,4.00
2018-05-08T16:34:01.318Z,3.83
2018-05-08T16:36:28.827Z,3.53
2018-05-08T16:38:57.123Z,3.47
2018-05-08T16:41:24.685Z,4.23
2018-05-08T16:43:52.268Z,3.87
2018-05-08T16:46:19.832Z,3.73
2018-05-08T16:48:47.352Z,3.40
2018-05-08T16:51:16.362Z,3.77
2018-05-08T16:53:44.663Z,4.13
2018-05-08T16:56:12.185Z,5.70
2018-05-08T16:58:40.492Z,5.47
2018-05-08T17:01:08.942Z,3.97
2018-05-08T17:03:36.490Z,7.17
2018-05-08T17:06:04.011Z,25.20
2018-05-08T17:08:31.566Z,15.23
2018-05-08T17:10:59.073Z,5.83
2018-05-08T17:13:26.600Z,3.70
2018-05-08T17:15:54.140Z,4.10
2018-05-08T17:18:21.665Z,3.83
2018-05-08T17:20:49.242Z,3.57
2018-05-08T17:23:17.676Z,3.73
2018-05-08T17:25:45.701Z,4.30
2018-05-08T17:28:13.222Z,3.67
2018-05-08T17:30:40.799Z,4.43
2018-05-08T17:33:08.326Z,3.83
2018-05-08T17:35:35.860Z,3.77
2018-05-08T17:38:03.365Z,3.93
2018-05-08T17:40:30.877Z,5.20
2018-05-08T17:42:58.407Z,3.63
2018-05-08T17:45:25.928Z,4.10
2018-05-08T17:47:54.113Z,3.70
2018-05-08T17:50:21.752Z,5.30
2018-05-08T17:52:49.342Z,3.60
2018-05-08T17:55:16.847Z,3.53
2018-05-08T17:57:44.393Z,3.40
2018-05-08T18:00:11.966Z,3.50
2018-05-08T18:02:40.259Z,3.10
2018-05-08T18:05:07.862Z,3.07
2018-05-08T18:07:35.370Z,3.00
2018-05-08T18:10:02.887Z,3.03
2018-05-08T18:12:31.959Z,3.00
2018-05-08T18:14:59.466Z,3.13
2018-05-08T18:17:27.899Z,3.53
2018-05-08T18:19:55.376Z,3.27
2018-05-08T18:22:22.880Z,3.70
2018-05-08T18:24:50.404Z,3.40
2018-05-08T18:27:17.950Z,3.20
2018-05-08T18:29:45.460Z,3.10
2018-05-08T18:32:13.772Z,2.87
2018-05-08T18:34:41.278Z,2.90
2018-05-08T18:37:10.043Z,2.83
2018-05-08T18:39:37.567Z,3.07
2018-05-08T18:42:05.089Z,3.17
2018-05-08T18:44:32.603Z,2.97
2018-05-08T18:47:00.162Z,3.50
2018-05-08T18:49:27.731Z,2.90
2018-05-08T18:51:55.239Z,3.00
2018-05-08T18:54:22.779Z,3.10
2018-05-08T18:56:50.307Z,2.87
2018-05-08T18:59:17.852Z,3.40
2018-05-08T19:01:45.398Z,3.30
2018-05-08T19:04:13.015Z,3.40
2018-05-08T19:06:40.634Z,3.80
2018-05-08T19:09:08.173Z,4.87
2018-05-08T19:11:42.051Z,3.67
2018-05-08T19:14:09.611Z,3.63
2018-05-08T19:16:37.175Z,4.00
2018-05-08T19:19:10.266Z,3.80
2018-05-08T19:21:37.790Z,3.53
2018-05-08T19:24:11.109Z,3.53
2018-05-08T19:26:38.650Z,3.60
2018-05-08T19:29:11.872Z,3.47
2018-05-08T19:31:39.478Z,3.63
2018-05-08T19:34:06.988Z,3.77
2018-05-08T19:36:40.115Z,3.43
2018-05-08T19:39:07.667Z,3.73
2018-05-08T19:41:35.197Z,4.03
2018-05-08T19:44:02.726Z,3.50
2018-05-08T19:46:30.279Z,3.73
2018-05-08T19:48:57.875Z,3.63
2018-05-08T19:51:25.440Z,3.63
2018-05-08T19:53:52.944Z,3.70
2018-05-08T19:56:20.458Z,3.90
2018-05-08T19:58:48.006Z,3.77
2018-05-08T20:01:15.510Z,4.37
2018-05-08T20:03:43.790Z,3.90
2018-05-08T20:06:12.101Z,4.10
2018-05-08T20:08:39.612Z,4.47
2018-05-08T20:11:07.142Z,4.30
2018-05-08T20:13:34.689Z,4.00
2018-05-08T20:16:02.230Z,3.90
2018-05-08T20:18:29.759Z,4.20
2018-05-08T20:20:57.638Z,4.37
2018-05-08T20:23:25.503Z,4.40
2018-05-08T20:25:53.083Z,4.10
2018-05-08T20:28:21.284Z,4.23
2018-05-08T20:30:48.970Z,4.57
2018-05-08T20:33:16.540Z,4.07
2018-05-08T20:35:44.110Z,4.47
2018-05-08T20:38:11.626Z,4.50
2018-05-08T20:40:39.997Z,4.40
2018-05-08T20:43:07.539Z,4.80
2018-05-08T20:45:35.811Z,4.70
2018-05-08T20:48:03.329Z,4.90
2018-05-08T20:50:30.892Z,4.83
2018-05-08T20:52:58.885Z,4.63
2018-05-08T20:55:26.409Z,5.30
2018-05-08T20:57:53.936Z,4.93
2018-05-08T21:00:21.454Z,4.47
2018-05-08T21:02:49.003Z,4.80
2018-05-08T21:05:16.534Z,4.80
2018-05-08T21:07:44.051Z,5.00
2018-05-08T21:10:11.558Z,4.90
2018-05-08T21:12:39.087Z,4.90
2018-05-08T21:15:07.370Z,4.83
2018-05-08T21:17:35.683Z,5.07
2018-05-08T21:20:03.287Z,4.77
2018-05-08T21:22:30.812Z,5.27
2018-05-08T21:24:58.330Z,5.60
2018-05-08T21:27:32.306Z,5.20
2018-05-08T21:30:05.461Z,5.33
2018-05-08T21:32:32.984Z,5.53
2018-05-08T21:35:00.526Z,5.90
2018-05-08T21:37:28.100Z,5.80
2018-05-08T21:39:55.646Z,5.60
2018-05-08T21:42:23.154Z,5.90
2018-05-08T21:44:50.689Z,5.63
2018-05-08T21:47:18.967Z,5.17
2018-05-08T21:49:46.476Z,5.17
2018-05-08T21:52:14.023Z,5.20
2018-05-08T21:54:41.540Z,4.90
2018-05-08T21:57:09.045Z,5.37
2018-05-08T21:59:36.660Z,5.17
2018-05-08T22:02:04.171Z,4.77
2018-05-08T22:04:31.684Z,5.20
2018-05-08T22:06:59.223Z,5.00
2018-05-08T22:09:26.734Z,5.00
2018-05-08T22:11:54.247Z,5.37
2018-05-08T22:14:21.769Z,5.23
2018-05-08T22:16:49.290Z,5.20
2018-05-08T22:19:17.610Z,5.70
2018-05-08T22:21:45.147Z,5.20
2018-05-08T22:24:13.442Z,5.80
2018-05-08T22:26:40.986Z,5.57
2018-05-08T22:29:08.518Z,5.70
2018-05-08T22:31:36.060Z,5.83
2018-05-08T22:34:03.566Z,6.10
2018-05-08T22:36:31.112Z,5.90
2018-05-08T22:38:59.393Z,6.00
2018-05-08T22:41:26.939Z,5.63
2018-05-08T22:43:54.450Z,5.50
2018-05-08T22:46:21.964Z,6.10
2018-05-08T22:48:49.478Z,6.03
2018-05-08T22:51:17.003Z,6.00
2018-05-08T22:53:44.516Z,5.90
2018-05-08T22:56:12.053Z,5.80
2018-05-08T22:58:39.569Z,5.97
2018-05-08T23:01:07.155Z,5.70
2018-05-08T23:03:34.738Z,5.50
2018-05-08T23:06:02.256Z,5.90
2018-05-08T23:08:30.529Z,6.33
2018-05-08T23:10:58.079Z,6.00
2018-05-08T23:13:25.587Z,5.83
2018-05-08T23:15:53.106Z,5.73
2018-05-08T23:18:21.337Z,5.80
2018-05-08T23:20:48.862Z,5.80
2018-05-08T23:23:16.378Z,6.50
2018-05-08T23:25:43.895Z,5.80
2018-05-08T23:28:11.457Z,6.10
2018-05-08T23:30:38.987Z,6.10
2018-05-08T23:33:07.283Z,5.73
2018-05-08T23:35:34.817Z,6.27
2018-05-08T23:38:02.322Z,5.60
2018-05-08T23:40:29.863Z,6.33
2018-05-08T23:42:58.145Z,6.07
2018-05-08T23:45:25.669Z,6.33
2018-05-08T23:47:53.273Z,5.93
2018-05-08T23:50:20.792Z,6.17
2018-05-08T23:52:48.323Z,6.27
2018-05-08T23:55:16.119Z,6.03
2018-05-08T23:57:43.638Z,5.90
